Pays
Station

 

Conditions  météo  pour  Skovde Flygplats  -  Suède    Suède

  
6 °C
    
 
 

METAR pour Skovde Flygplats :

ESGR 041820Z AUTO 26004KT 9999 OVC086/// 06/M03 Q1022

 

Voici le bulletin pour Skovde Flygplats - Suède.
 
Le bulletin a été fait il y a 17 minutes, à 18:20 UTC .
Le vent soufflait à la vitesse de 2.1 mètres par seconde de Ouest (260°).
 
La température était de 6 °C, avec un point de rosée à -3 °C.
La pression atmosphérique était de 1022 hPa.
L'humidité relative était de 52.4%.
 
La visibilité globale était de supérieure à 10 kilomètres.
 

 
 
 

Pays :   A   B   C   D   E   F   G   H   I   J   K   L   M   N   O   P   Q   R   S   T   U   V   W   Y   Z

 

Partenaires :  Info Météo avec Met'info
Météo Marine avec MeteoMarine.net
Infos Site  |  Infos Légales  |  Crédits  |  Confidentialité
Contactez-nous  |  Ajouter aux favoris
© 2013-2020 METAR - Tous droits réservés